sensor_id;sensor_type;location;lat;lon;timestamp;temperature;humidity
10278;DHT22;5184;51.376;7.148;2023-05-19T00:00:21;8.30;1.00
10278;DHT22;5184;51.376;7.148;2023-05-19T00:02:48;8.30;1.00
10278;DHT22;5184;51.376;7.148;2023-05-19T00:05:15;8.30;1.00
10278;DHT22;5184;51.376;7.148;2023-05-19T00:07:41;8.20;1.00
10278;DHT22;5184;51.376;7.148;2023-05-19T00:10:09;8.20;1.00
10278;DHT22;5184;51.376;7.148;2023-05-19T00:12:37;8.10;1.00
10278;DHT22;5184;51.376;7.148;2023-05-19T00:15:04;8.10;1.00
10278;DHT22;5184;51.376;7.148;2023-05-19T00:17:30;8.10;1.00
10278;DHT22;5184;51.376;7.148;2023-05-19T00:19:57;8.00;1.00
10278;DHT22;5184;51.376;7.148;2023-05-19T00:22:24;7.90;40.30
10278;DHT22;5184;51.376;7.148;2023-05-19T00:24:50;7.90;88.00
10278;DHT22;5184;51.376;7.148;2023-05-19T00:27:17;7.90;99.90
10278;DHT22;5184;51.376;7.148;2023-05-19T00:29:43;7.90;99.90
10278;DHT22;5184;51.376;7.148;2023-05-19T00:32:11;7.80;99.90
10278;DHT22;5184;51.376;7.148;2023-05-19T00:34:38;7.90;99.90
10278;DHT22;5184;51.376;7.148;2023-05-19T00:37:05;7.80;99.90
10278;DHT22;5184;51.376;7.148;2023-05-19T00:39:33;7.80;99.90
10278;DHT22;5184;51.376;7.148;2023-05-19T00:42:00;7.80;99.90
10278;DHT22;5184;51.376;7.148;2023-05-19T00:44:28;7.80;99.90
10278;DHT22;5184;51.376;7.148;2023-05-19T00:46:54;7.80;99.90
10278;DHT22;5184;51.376;7.148;2023-05-19T00:49:21;7.70;99.90
10278;DHT22;5184;51.376;7.148;2023-05-19T00:51:47;7.60;99.90
10278;DHT22;5184;51.376;7.148;2023-05-19T00:54:14;7.60;99.90
10278;DHT22;5184;51.376;7.148;2023-05-19T00:56:41;7.60;99.90
10278;DHT22;5184;51.376;7.148;2023-05-19T00:59:07;7.50;99.90
10278;DHT22;5184;51.376;7.148;2023-05-19T01:01:34;7.50;1.00
10278;DHT22;5184;51.376;7.148;2023-05-19T01:04:00;7.50;1.00
10278;DHT22;5184;51.376;7.148;2023-05-19T01:06:27;7.40;1.00
10278;DHT22;5184;51.376;7.148;2023-05-19T01:08:54;7.50;1.00
10278;DHT22;5184;51.376;7.148;2023-05-19T01:11:22;7.40;1.00
10278;DHT22;5184;51.376;7.148;2023-05-19T01:13:49;7.40;1.00
10278;DHT22;5184;51.376;7.148;2023-05-19T01:16:21;7.40;1.00
10278;DHT22;5184;51.376;7.148;2023-05-19T01:21:48;7.30;51.50
10278;DHT22;5184;51.376;7.148;2023-05-19T01:24:32;7.30;39.10
10278;DHT22;5184;51.376;7.148;2023-05-19T01:27:01;7.30;75.00
10278;DHT22;5184;51.376;7.148;2023-05-19T01:29:28;7.30;29.50
10278;DHT22;5184;51.376;7.148;2023-05-19T01:31:54;7.20;97.10
10278;DHT22;5184;51.376;7.148;2023-05-19T01:34:20;7.30;99.90
10278;DHT22;5184;51.376;7.148;2023-05-19T01:36:47;7.20;99.90
10278;DHT22;5184;51.376;7.148;2023-05-19T01:39:13;7.30;99.90
10278;DHT22;5184;51.376;7.148;2023-05-19T01:41:40;7.30;99.90
10278;DHT22;5184;51.376;7.148;2023-05-19T01:44:07;7.20;99.90
10278;DHT22;5184;51.376;7.148;2023-05-19T01:46:33;7.20;99.90
10278;DHT22;5184;51.376;7.148;2023-05-19T01:49:00;7.20;99.90
10278;DHT22;5184;51.376;7.148;2023-05-19T01:51:28;7.10;99.90
10278;DHT22;5184;51.376;7.148;2023-05-19T01:53:55;7.10;99.90
10278;DHT22;5184;51.376;7.148;2023-05-19T01:56:30;7.10;99.90
10278;DHT22;5184;51.376;7.148;2023-05-19T01:58:53;7.10;99.90
10278;DHT22;5184;51.376;7.148;2023-05-19T02:01:37;7.10;99.90
10278;DHT22;5184;51.376;7.148;2023-05-19T02:04:14;7.00;99.90
10278;DHT22;5184;51.376;7.148;2023-05-19T02:06:42;7.00;99.90
10278;DHT22;5184;51.376;7.148;2023-05-19T02:09:12;6.90;99.90
10278;DHT22;5184;51.376;7.148;2023-05-19T02:14:36;6.80;99.90
10278;DHT22;5184;51.376;7.148;2023-05-19T02:17:01;6.80;99.90
10278;DHT22;5184;51.376;7.148;2023-05-19T02:19:30;6.80;99.90
10278;DHT22;5184;51.376;7.148;2023-05-19T02:21:55;6.70;99.90
10278;DHT22;5184;51.376;7.148;2023-05-19T02:24:22;6.70;99.90
10278;DHT22;5184;51.376;7.148;2023-05-19T02:26:50;6.70;99.90
10278;DHT22;5184;51.376;7.148;2023-05-19T02:29:17;6.70;99.90
10278;DHT22;5184;51.376;7.148;2023-05-19T02:31:44;6.70;1.00
10278;DHT22;5184;51.376;7.148;2023-05-19T02:34:11;6.70;1.00
10278;DHT22;5184;51.376;7.148;2023-05-19T02:36:40;6.60;1.00
10278;DHT22;5184;51.376;7.148;2023-05-19T02:39:06;6.50;1.00
10278;DHT22;5184;51.376;7.148;2023-05-19T02:41:32;6.50;99.90
10278;DHT22;5184;51.376;7.148;2023-05-19T02:44:00;6.50;99.90
10278;DHT22;5184;51.376;7.148;2023-05-19T02:46:26;6.50;99.90
10278;DHT22;5184;51.376;7.148;2023-05-19T02:48:54;6.50;99.90
10278;DHT22;5184;51.376;7.148;2023-05-19T02:51:20;6.50;99.90
10278;DHT22;5184;51.376;7.148;2023-05-19T02:53:47;6.50;99.90
10278;DHT22;5184;51.376;7.148;2023-05-19T02:56:14;6.40;99.90
10278;DHT22;5184;51.376;7.148;2023-05-19T02:58:42;6.40;99.90
10278;DHT22;5184;51.376;7.148;2023-05-19T03:01:09;6.40;99.90
10278;DHT22;5184;51.376;7.148;2023-05-19T03:03:36;6.40;99.90
10278;DHT22;5184;51.376;7.148;2023-05-19T03:06:04;6.40;65.00
10278;DHT22;5184;51.376;7.148;2023-05-19T03:08:30;6.30;50.30
10278;DHT22;5184;51.376;7.148;2023-05-19T03:10:57;6.30;59.70
10278;DHT22;5184;51.376;7.148;2023-05-19T03:13:23;6.30;61.80
10278;DHT22;5184;51.376;7.148;2023-05-19T03:15:50;6.30;36.10
10278;DHT22;5184;51.376;7.148;2023-05-19T03:18:17;6.30;97.60
10278;DHT22;5184;51.376;7.148;2023-05-19T03:20:44;6.30;99.90
10278;DHT22;5184;51.376;7.148;2023-05-19T03:23:11;6.20;99.90
10278;DHT22;5184;51.376;7.148;2023-05-19T03:25:39;6.30;99.90
10278;DHT22;5184;51.376;7.148;2023-05-19T03:28:05;6.20;99.90
10278;DHT22;5184;51.376;7.148;2023-05-19T03:30:37;6.30;99.90
10278;DHT22;5184;51.376;7.148;2023-05-19T03:33:04;6.30;99.90
10278;DHT22;5184;51.376;7.148;2023-05-19T03:35:31;6.20;1.00
10278;DHT22;5184;51.376;7.148;2023-05-19T03:37:59;6.30;1.00
10278;DHT22;5184;51.376;7.148;2023-05-19T03:40:26;6.30;1.00
10278;DHT22;5184;51.376;7.148;2023-05-19T03:42:53;6.30;1.00
10278;DHT22;5184;51.376;7.148;2023-05-19T03:45:19;6.20;1.00
10278;DHT22;5184;51.376;7.148;2023-05-19T03:47:46;6.20;96.40
10278;DHT22;5184;51.376;7.148;2023-05-19T03:50:12;6.20;99.90
10278;DHT22;5184;51.376;7.148;2023-05-19T03:52:39;6.20;1.00
10278;DHT22;5184;51.376;7.148;2023-05-19T03:55:06;6.20;1.00
10278;DHT22;5184;51.376;7.148;2023-05-19T03:57:33;6.20;90.50
10278;DHT22;5184;51.376;7.148;2023-05-19T04:00:00;6.10;99.90
10278;DHT22;5184;51.376;7.148;2023-05-19T04:02:26;6.20;1.00
10278;DHT22;5184;51.376;7.148;2023-05-19T04:04:53;6.10;99.30
10278;DHT22;5184;51.376;7.148;2023-05-19T04:07:21;6.10;99.90
10278;DHT22;5184;51.376;7.148;2023-05-19T04:09:48;6.10;1.00
10278;DHT22;5184;51.376;7.148;2023-05-19T04:12:16;6.10;1.00
10278;DHT22;5184;51.376;7.148;2023-05-19T04:14:43;6.20;1.00
10278;DHT22;5184;51.376;7.148;2023-05-19T04:17:10;6.30;1.00
10278;DHT22;5184;51.376;7.148;2023-05-19T04:19:38;6.30;1.00
10278;DHT22;5184;51.376;7.148;2023-05-19T04:22:05;6.30;99.90
10278;DHT22;5184;51.376;7.148;2023-05-19T04:24:32;6.30;1.00
10278;DHT22;5184;51.376;7.148;2023-05-19T04:27:00;6.40;1.00
10278;DHT22;5184;51.376;7.148;2023-05-19T04:29:27;6.40;1.00
10278;DHT22;5184;51.376;7.148;2023-05-19T04:31:53;6.40;1.00
10278;DHT22;5184;51.376;7.148;2023-05-19T04:34:20;6.40;1.00
10278;DHT22;5184;51.376;7.148;2023-05-19T04:36:46;6.40;99.90
10278;DHT22;5184;51.376;7.148;2023-05-19T04:39:13;6.30;99.90
10278;DHT22;5184;51.376;7.148;2023-05-19T04:41:41;6.30;1.00
10278;DHT22;5184;51.376;7.148;2023-05-19T04:44:07;6.30;1.00
10278;DHT22;5184;51.376;7.148;2023-05-19T04:46:35;6.30;26.60
10278;DHT22;5184;51.376;7.148;2023-05-19T04:49:02;6.30;44.60
10278;DHT22;5184;51.376;7.148;2023-05-19T04:51:28;6.30;99.90
10278;DHT22;5184;51.376;7.148;2023-05-19T04:53:55;6.40;99.90
10278;DHT22;5184;51.376;7.148;2023-05-19T04:56:22;6.50;99.90
10278;DHT22;5184;51.376;7.148;2023-05-19T04:58:48;6.50;99.90
10278;DHT22;5184;51.376;7.148;2023-05-19T05:01:15;6.50;99.90
10278;DHT22;5184;51.376;7.148;2023-05-19T05:03:41;6.60;99.90
10278;DHT22;5184;51.376;7.148;2023-05-19T05:06:08;6.60;99.90
10278;DHT22;5184;51.376;7.148;2023-05-19T05:08:35;6.70;1.00
10278;DHT22;5184;51.376;7.148;2023-05-19T05:11:03;6.90;1.00
10278;DHT22;5184;51.376;7.148;2023-05-19T05:13:30;6.90;1.00
10278;DHT22;5184;51.376;7.148;2023-05-19T05:15:57;7.00;99.90
10278;DHT22;5184;51.376;7.148;2023-05-19T05:18:24;7.20;24.30
10278;DHT22;5184;51.376;7.148;2023-05-19T05:20:51;7.40;99.90
10278;DHT22;5184;51.376;7.148;2023-05-19T05:23:18;7.40;99.90
10278;DHT22;5184;51.376;7.148;2023-05-19T05:25:45;7.50;1.00
10278;DHT22;5184;51.376;7.148;2023-05-19T05:28:11;7.60;99.90
10278;DHT22;5184;51.376;7.148;2023-05-19T05:30:39;7.70;1.00
10278;DHT22;5184;51.376;7.148;2023-05-19T05:33:05;7.70;1.00
10278;DHT22;5184;51.376;7.148;2023-05-19T05:35:32;7.80;1.00
10278;DHT22;5184;51.376;7.148;2023-05-19T05:37:59;8.00;99.90
10278;DHT22;5184;51.376;7.148;2023-05-19T05:40:27;8.00;1.00
10278;DHT22;5184;51.376;7.148;2023-05-19T05:42:53;8.00;1.00
10278;DHT22;5184;51.376;7.148;2023-05-19T05:45:22;8.20;1.00
10278;DHT22;5184;51.376;7.148;2023-05-19T05:47:48;8.20;1.00
10278;DHT22;5184;51.376;7.148;2023-05-19T05:50:15;8.30;99.90
10278;DHT22;5184;51.376;7.148;2023-05-19T05:52:45;8.40;1.00
10278;DHT22;5184;51.376;7.148;2023-05-19T05:55:11;8.50;99.90
10278;DHT22;5184;51.376;7.148;2023-05-19T05:57:38;8.50;99.90
10278;DHT22;5184;51.376;7.148;2023-05-19T06:00:06;8.50;99.90
10278;DHT22;5184;51.376;7.148;2023-05-19T06:02:32;8.60;99.90
10278;DHT22;5184;51.376;7.148;2023-05-19T06:04:59;8.70;67.30
10278;DHT22;5184;51.376;7.148;2023-05-19T06:07:26;8.80;1.00
10278;DHT22;5184;51.376;7.148;2023-05-19T06:09:53;8.90;1.00
10278;DHT22;5184;51.376;7.148;2023-05-19T06:12:20;8.90;1.00
10278;DHT22;5184;51.376;7.148;2023-05-19T06:14:46;9.00;99.90
10278;DHT22;5184;51.376;7.148;2023-05-19T06:17:13;9.10;1.00
10278;DHT22;5184;51.376;7.148;2023-05-19T06:19:39;9.20;1.00
10278;DHT22;5184;51.376;7.148;2023-05-19T06:22:06;9.30;1.00
10278;DHT22;5184;51.376;7.148;2023-05-19T06:24:33;9.50;1.00
10278;DHT22;5184;51.376;7.148;2023-05-19T06:27:01;9.60;1.00
10278;DHT22;5184;51.376;7.148;2023-05-19T06:29:28;9.70;99.90
10278;DHT22;5184;51.376;7.148;2023-05-19T06:31:55;9.70;99.90
10278;DHT22;5184;51.376;7.148;2023-05-19T06:34:23;9.80;99.90
10278;DHT22;5184;51.376;7.148;2023-05-19T06:36:50;9.90;99.90
10278;DHT22;5184;51.376;7.148;2023-05-19T06:39:18;10.00;99.90
10278;DHT22;5184;51.376;7.148;2023-05-19T06:41:45;10.10;30.90
10278;DHT22;5184;51.376;7.148;2023-05-19T06:44:11;10.10;6.70
10278;DHT22;5184;51.376;7.148;2023-05-19T06:46:38;10.20;1.00
10278;DHT22;5184;51.376;7.148;2023-05-19T06:49:05;10.30;1.00
10278;DHT22;5184;51.376;7.148;2023-05-19T06:51:31;10.40;1.00
10278;DHT22;5184;51.376;7.148;2023-05-19T06:53:58;10.50;1.00
10278;DHT22;5184;51.376;7.148;2023-05-19T06:56:25;10.60;99.90
10278;DHT22;5184;51.376;7.148;2023-05-19T06:58:53;10.70;99.90
10278;DHT22;5184;51.376;7.148;2023-05-19T07:01:20;10.80;99.90
10278;DHT22;5184;51.376;7.148;2023-05-19T07:03:47;10.80;99.90
10278;DHT22;5184;51.376;7.148;2023-05-19T07:06:13;10.90;99.90
10278;DHT22;5184;51.376;7.148;2023-05-19T07:08:40;11.00;99.90
10278;DHT22;5184;51.376;7.148;2023-05-19T07:11:06;11.10;99.90
10278;DHT22;5184;51.376;7.148;2023-05-19T07:13:33;11.10;1.00
10278;DHT22;5184;51.376;7.148;2023-05-19T07:16:00;11.30;1.00
10278;DHT22;5184;51.376;7.148;2023-05-19T07:18:28;11.40;1.00
10278;DHT22;5184;51.376;7.148;2023-05-19T07:20:57;11.40;1.00
10278;DHT22;5184;51.376;7.148;2023-05-19T07:23:23;11.50;1.00
10278;DHT22;5184;51.376;7.148;2023-05-19T07:25:53;11.60;1.00
10278;DHT22;5184;51.376;7.148;2023-05-19T07:28:19;11.70;1.00
10278;DHT22;5184;51.376;7.148;2023-05-19T07:30:46;11.80;1.00
10278;DHT22;5184;51.376;7.148;2023-05-19T07:33:12;11.90;99.90
10278;DHT22;5184;51.376;7.148;2023-05-19T07:35:39;12.00;99.90
10278;DHT22;5184;51.376;7.148;2023-05-19T07:40:34;12.20;99.90
10278;DHT22;5184;51.376;7.148;2023-05-19T07:43:02;12.50;1.00
10278;DHT22;5184;51.376;7.148;2023-05-19T07:45:29;12.60;1.00
10278;DHT22;5184;51.376;7.148;2023-05-19T07:47:56;12.80;99.90
10278;DHT22;5184;51.376;7.148;2023-05-19T07:50:23;12.80;99.90
10278;DHT22;5184;51.376;7.148;2023-05-19T07:52:50;12.80;93.50
10278;DHT22;5184;51.376;7.148;2023-05-19T07:55:17;13.00;99.90
10278;DHT22;5184;51.376;7.148;2023-05-19T07:57:44;12.90;99.90
10278;DHT22;5184;51.376;7.148;2023-05-19T08:00:11;13.10;99.90
10278;DHT22;5184;51.376;7.148;2023-05-19T08:02:37;13.20;1.00
10278;DHT22;5184;51.376;7.148;2023-05-19T08:05:05;13.40;1.00
10278;DHT22;5184;51.376;7.148;2023-05-19T08:07:32;13.40;1.00
10278;DHT22;5184;51.376;7.148;2023-05-19T08:09:58;13.50;1.00
10278;DHT22;5184;51.376;7.148;2023-05-19T08:12:25;13.60;99.90
10278;DHT22;5184;51.376;7.148;2023-05-19T08:14:51;13.70;99.90
10278;DHT22;5184;51.376;7.148;2023-05-19T08:17:19;13.80;99.90
10278;DHT22;5184;51.376;7.148;2023-05-19T08:19:47;13.90;99.90
10278;DHT22;5184;51.376;7.148;2023-05-19T08:22:13;13.80;99.90
10278;DHT22;5184;51.376;7.148;2023-05-19T08:24:40;14.00;99.90
10278;DHT22;5184;51.376;7.148;2023-05-19T08:27:12;14.10;1.60
10278;DHT22;5184;51.376;7.148;2023-05-19T08:29:39;14.10;99.90
10278;DHT22;5184;51.376;7.148;2023-05-19T08:32:06;14.20;1.00
10278;DHT22;5184;51.376;7.148;2023-05-19T08:34:32;14.20;99.90
10278;DHT22;5184;51.376;7.148;2023-05-19T08:36:59;14.30;1.00
10278;DHT22;5184;51.376;7.148;2023-05-19T08:39:26;14.40;1.00
10278;DHT22;5184;51.376;7.148;2023-05-19T08:41:54;14.40;1.00
10278;DHT22;5184;51.376;7.148;2023-05-19T08:44:21;14.50;1.00
10278;DHT22;5184;51.376;7.148;2023-05-19T08:46:48;14.50;1.00
10278;DHT22;5184;51.376;7.148;2023-05-19T08:49:16;14.70;1.00
10278;DHT22;5184;51.376;7.148;2023-05-19T08:51:54;14.70;1.00
10278;DHT22;5184;51.376;7.148;2023-05-19T08:54:22;14.70;1.00
10278;DHT22;5184;51.376;7.148;2023-05-19T08:56:48;14.80;99.90
10278;DHT22;5184;51.376;7.148;2023-05-19T08:59:15;14.80;1.00
10278;DHT22;5184;51.376;7.148;2023-05-19T09:01:42;14.90;1.00
10278;DHT22;5184;51.376;7.148;2023-05-19T09:04:08;14.90;1.00
10278;DHT22;5184;51.376;7.148;2023-05-19T09:06:35;14.90;1.00
10278;DHT22;5184;51.376;7.148;2023-05-19T09:09:02;15.00;99.90
10278;DHT22;5184;51.376;7.148;2023-05-19T09:11:29;15.20;99.90
10278;DHT22;5184;51.376;7.148;2023-05-19T09:13:56;15.20;99.90
10278;DHT22;5184;51.376;7.148;2023-05-19T09:16:24;15.20;99.90
10278;DHT22;5184;51.376;7.148;2023-05-19T09:18:53;15.20;99.90
10278;DHT22;5184;51.376;7.148;2023-05-19T09:21:25;15.20;99.90
10278;DHT22;5184;51.376;7.148;2023-05-19T09:23:47;15.20;99.90
10278;DHT22;5184;51.376;7.148;2023-05-19T09:26:15;15.20;99.90
10278;DHT22;5184;51.376;7.148;2023-05-19T09:28:42;15.30;99.90
10278;DHT22;5184;51.376;7.148;2023-05-19T09:31:09;15.30;99.90
10278;DHT22;5184;51.376;7.148;2023-05-19T09:33:37;15.30;99.90
10278;DHT22;5184;51.376;7.148;2023-05-19T09:36:03;15.40;99.90
10278;DHT22;5184;51.376;7.148;2023-05-19T09:38:31;15.60;99.90
10278;DHT22;5184;51.376;7.148;2023-05-19T09:40:58;15.70;99.90
10278;DHT22;5184;51.376;7.148;2023-05-19T09:43:27;15.70;99.90
10278;DHT22;5184;51.376;7.148;2023-05-19T09:48:26;15.70;99.90
10278;DHT22;5184;51.376;7.148;2023-05-19T09:50:54;15.80;71.00
10278;DHT22;5184;51.376;7.148;2023-05-19T09:53:20;15.80;69.10
10278;DHT22;5184;51.376;7.148;2023-05-19T09:55:47;15.80;89.40
10278;DHT22;5184;51.376;7.148;2023-05-19T09:58:15;16.00;1.00
10278;DHT22;5184;51.376;7.148;2023-05-19T10:03:21;16.00;1.00
10278;DHT22;5184;51.376;7.148;2023-05-19T10:05:48;16.00;1.00
10278;DHT22;5184;51.376;7.148;2023-05-19T10:08:16;16.00;1.00
10278;DHT22;5184;51.376;7.148;2023-05-19T10:10:45;16.00;1.00
10278;DHT22;5184;51.376;7.148;2023-05-19T10:13:12;15.90;1.00
10278;DHT22;5184;51.376;7.148;2023-05-19T10:15:39;16.00;1.00
10278;DHT22;5184;51.376;7.148;2023-05-19T10:18:09;16.20;1.00
10278;DHT22;5184;51.376;7.148;2023-05-19T10:20:36;16.10;1.00
10278;DHT22;5184;51.376;7.148;2023-05-19T10:23:03;16.30;1.00
10278;DHT22;5184;51.376;7.148;2023-05-19T10:25:31;16.50;1.00
10278;DHT22;5184;51.376;7.148;2023-05-19T10:28:01;16.50;1.00
10278;DHT22;5184;51.376;7.148;2023-05-19T10:30:29;16.60;1.00
10278;DHT22;5184;51.376;7.148;2023-05-19T10:32:55;16.60;1.00
10278;DHT22;5184;51.376;7.148;2023-05-19T10:35:32;16.60;1.00
10278;DHT22;5184;51.376;7.148;2023-05-19T10:38:05;17.00;1.00
10278;DHT22;5184;51.376;7.148;2023-05-19T10:40:33;16.70;1.00
10278;DHT22;5184;51.376;7.148;2023-05-19T10:43:21;16.70;1.00
10278;DHT22;5184;51.376;7.148;2023-05-19T10:45:46;16.70;1.00
10278;DHT22;5184;51.376;7.148;2023-05-19T10:48:13;16.60;1.00
10278;DHT22;5184;51.376;7.148;2023-05-19T10:50:42;16.90;1.00
10278;DHT22;5184;51.376;7.148;2023-05-19T10:53:12;17.00;1.00
10278;DHT22;5184;51.376;7.148;2023-05-19T10:55:43;17.00;1.00
10278;DHT22;5184;51.376;7.148;2023-05-19T10:58:10;17.00;1.00
10278;DHT22;5184;51.376;7.148;2023-05-19T11:00:37;16.90;1.00
10278;DHT22;5184;51.376;7.148;2023-05-19T11:03:12;16.90;1.00
10278;DHT22;5184;51.376;7.148;2023-05-19T11:05:38;16.90;1.00
10278;DHT22;5184;51.376;7.148;2023-05-19T11:08:05;17.00;1.00
10278;DHT22;5184;51.376;7.148;2023-05-19T11:10:32;17.00;1.00
10278;DHT22;5184;51.376;7.148;2023-05-19T11:13:00;17.00;1.00
10278;DHT22;5184;51.376;7.148;2023-05-19T11:15:27;17.10;1.00
10278;DHT22;5184;51.376;7.148;2023-05-19T11:17:54;17.00;1.00
10278;DHT22;5184;51.376;7.148;2023-05-19T11:20:23;17.30;1.00
10278;DHT22;5184;51.376;7.148;2023-05-19T11:23:03;17.30;1.00
10278;DHT22;5184;51.376;7.148;2023-05-19T11:25:40;17.40;1.00
10278;DHT22;5184;51.376;7.148;2023-05-19T11:28:06;17.40;1.00
10278;DHT22;5184;51.376;7.148;2023-05-19T11:30:33;17.30;1.00
10278;DHT22;5184;51.376;7.148;2023-05-19T11:33:00;17.40;1.00
10278;DHT22;5184;51.376;7.148;2023-05-19T11:35:28;17.60;1.00
10278;DHT22;5184;51.376;7.148;2023-05-19T11:37:54;17.60;1.00
10278;DHT22;5184;51.376;7.148;2023-05-19T11:40:22;17.80;1.00
10278;DHT22;5184;51.376;7.148;2023-05-19T11:42:49;17.60;99.90
10278;DHT22;5184;51.376;7.148;2023-05-19T11:45:16;17.60;1.00
10278;DHT22;5184;51.376;7.148;2023-05-19T11:47:45;17.60;1.00
10278;DHT22;5184;51.376;7.148;2023-05-19T11:50:10;17.70;99.90
10278;DHT22;5184;51.376;7.148;2023-05-19T11:52:36;17.70;99.90
10278;DHT22;5184;51.376;7.148;2023-05-19T11:55:03;17.70;99.90
10278;DHT22;5184;51.376;7.148;2023-05-19T11:57:30;17.80;99.90
10278;DHT22;5184;51.376;7.148;2023-05-19T11:59:56;17.90;99.90
10278;DHT22;5184;51.376;7.148;2023-05-19T12:02:23;18.00;99.90
10278;DHT22;5184;51.376;7.148;2023-05-19T12:04:50;18.10;99.90
10278;DHT22;5184;51.376;7.148;2023-05-19T12:07:18;18.30;99.90
10278;DHT22;5184;51.376;7.148;2023-05-19T12:09:45;18.30;99.90
10278;DHT22;5184;51.376;7.148;2023-05-19T12:12:13;18.30;99.90
10278;DHT22;5184;51.376;7.148;2023-05-19T12:14:39;18.40;99.90
10278;DHT22;5184;51.376;7.148;2023-05-19T12:17:10;18.30;99.90
10278;DHT22;5184;51.376;7.148;2023-05-19T12:19:35;18.30;99.90
10278;DHT22;5184;51.376;7.148;2023-05-19T12:22:02;18.40;99.90
10278;DHT22;5184;51.376;7.148;2023-05-19T12:24:29;18.50;99.90
10278;DHT22;5184;51.376;7.148;2023-05-19T12:27:05;18.70;99.90
10278;DHT22;5184;51.376;7.148;2023-05-19T12:29:31;18.80;99.90
10278;DHT22;5184;51.376;7.148;2023-05-19T12:31:57;18.80;99.90
10278;DHT22;5184;51.376;7.148;2023-05-19T12:34:24;19.00;99.90
10278;DHT22;5184;51.376;7.148;2023-05-19T12:36:51;19.10;99.90
10278;DHT22;5184;51.376;7.148;2023-05-19T12:39:18;19.00;99.90
10278;DHT22;5184;51.376;7.148;2023-05-19T12:41:45;19.00;99.90
10278;DHT22;5184;51.376;7.148;2023-05-19T12:44:13;19.00;99.90
10278;DHT22;5184;51.376;7.148;2023-05-19T12:46:39;19.10;99.90
10278;DHT22;5184;51.376;7.148;2023-05-19T12:49:07;19.10;99.90
10278;DHT22;5184;51.376;7.148;2023-05-19T12:51:33;19.10;99.90
10278;DHT22;5184;51.376;7.148;2023-05-19T12:54:01;19.20;99.90
10278;DHT22;5184;51.376;7.148;2023-05-19T12:56:27;19.20;99.90
10278;DHT22;5184;51.376;7.148;2023-05-19T12:58:54;19.30;99.90
10278;DHT22;5184;51.376;7.148;2023-05-19T13:01:21;19.30;99.90
10278;DHT22;5184;51.376;7.148;2023-05-19T13:03:48;19.20;99.90
10278;DHT22;5184;51.376;7.148;2023-05-19T13:06:15;19.20;99.90
10278;DHT22;5184;51.376;7.148;2023-05-19T13:08:42;19.20;99.90
10278;DHT22;5184;51.376;7.148;2023-05-19T13:11:08;19.30;99.90
10278;DHT22;5184;51.376;7.148;2023-05-19T13:13:35;19.40;99.90
10278;DHT22;5184;51.376;7.148;2023-05-19T13:16:01;19.50;99.90
10278;DHT22;5184;51.376;7.148;2023-05-19T13:18:28;19.50;99.90
10278;DHT22;5184;51.376;7.148;2023-05-19T13:20:55;19.70;99.90
10278;DHT22;5184;51.376;7.148;2023-05-19T13:23:22;19.70;99.90
10278;DHT22;5184;51.376;7.148;2023-05-19T13:25:49;19.70;99.90
10278;DHT22;5184;51.376;7.148;2023-05-19T13:28:15;19.70;99.90
10278;DHT22;5184;51.376;7.148;2023-05-19T13:30:42;19.70;99.90
10278;DHT22;5184;51.376;7.148;2023-05-19T13:33:08;19.70;99.90
10278;DHT22;5184;51.376;7.148;2023-05-19T13:35:35;19.70;99.90
10278;DHT22;5184;51.376;7.148;2023-05-19T13:38:05;19.70;99.90
10278;DHT22;5184;51.376;7.148;2023-05-19T13:40:31;19.70;99.90
10278;DHT22;5184;51.376;7.148;2023-05-19T13:43:00;19.90;99.90
10278;DHT22;5184;51.376;7.148;2023-05-19T13:45:26;20.00;99.90
10278;DHT22;5184;51.376;7.148;2023-05-19T13:47:53;20.00;99.90
10278;DHT22;5184;51.376;7.148;2023-05-19T13:50:19;20.00;99.90
10278;DHT22;5184;51.376;7.148;2023-05-19T13:52:46;19.90;99.90
10278;DHT22;5184;51.376;7.148;2023-05-19T13:55:13;19.80;99.90
10278;DHT22;5184;51.376;7.148;2023-05-19T13:57:39;20.00;99.90
10278;DHT22;5184;51.376;7.148;2023-05-19T14:00:07;20.00;99.90
10278;DHT22;5184;51.376;7.148;2023-05-19T14:02:34;19.90;99.90
10278;DHT22;5184;51.376;7.148;2023-05-19T14:05:00;20.10;99.90
10278;DHT22;5184;51.376;7.148;2023-05-19T14:07:27;20.30;99.90
10278;DHT22;5184;51.376;7.148;2023-05-19T14:09:53;20.40;99.90
10278;DHT22;5184;51.376;7.148;2023-05-19T14:12:20;20.40;99.90
10278;DHT22;5184;51.376;7.148;2023-05-19T14:14:47;20.70;99.90
10278;DHT22;5184;51.376;7.148;2023-05-19T14:17:14;20.70;99.90
10278;DHT22;5184;51.376;7.148;2023-05-19T14:19:41;20.80;99.90
10278;DHT22;5184;51.376;7.148;2023-05-19T14:22:07;20.90;99.90
10278;DHT22;5184;51.376;7.148;2023-05-19T14:24:34;20.90;99.90
10278;DHT22;5184;51.376;7.148;2023-05-19T14:27:00;21.00;99.90
10278;DHT22;5184;51.376;7.148;2023-05-19T14:29:28;21.30;99.90
10278;DHT22;5184;51.376;7.148;2023-05-19T14:31:55;21.40;99.90
10278;DHT22;5184;51.376;7.148;2023-05-19T14:34:22;21.40;99.90
10278;DHT22;5184;51.376;7.148;2023-05-19T14:36:49;21.40;99.90
10278;DHT22;5184;51.376;7.148;2023-05-19T14:39:16;21.50;99.90
10278;DHT22;5184;51.376;7.148;2023-05-19T14:41:42;22.10;99.90
10278;DHT22;5184;51.376;7.148;2023-05-19T14:44:10;23.20;99.90
10278;DHT22;5184;51.376;7.148;2023-05-19T14:46:37;23.80;99.90
10278;DHT22;5184;51.376;7.148;2023-05-19T14:49:04;24.30;99.90
10278;DHT22;5184;51.376;7.148;2023-05-19T14:51:32;24.60;99.90
10278;DHT22;5184;51.376;7.148;2023-05-19T14:53:58;24.50;99.90
10278;DHT22;5184;51.376;7.148;2023-05-19T14:56:25;24.60;99.90
10278;DHT22;5184;51.376;7.148;2023-05-19T14:58:52;24.30;99.90
10278;DHT22;5184;51.376;7.148;2023-05-19T15:01:18;23.90;99.90
10278;DHT22;5184;51.376;7.148;2023-05-19T15:03:45;23.60;99.90
10278;DHT22;5184;51.376;7.148;2023-05-19T15:06:12;23.40;99.90
10278;DHT22;5184;51.376;7.148;2023-05-19T15:08:39;23.40;99.90
10278;DHT22;5184;51.376;7.148;2023-05-19T15:11:05;23.30;99.90
10278;DHT22;5184;51.376;7.148;2023-05-19T15:13:32;23.50;99.90
10278;DHT22;5184;51.376;7.148;2023-05-19T15:15:58;23.40;99.90
10278;DHT22;5184;51.376;7.148;2023-05-19T15:18:25;23.40;99.90
10278;DHT22;5184;51.376;7.148;2023-05-19T15:20:52;23.70;99.90
10278;DHT22;5184;51.376;7.148;2023-05-19T15:23:20;23.50;99.90
10278;DHT22;5184;51.376;7.148;2023-05-19T15:25:46;23.50;99.90
10278;DHT22;5184;51.376;7.148;2023-05-19T15:28:13;23.30;99.90
10278;DHT22;5184;51.376;7.148;2023-05-19T15:30:39;23.20;99.90
10278;DHT22;5184;51.376;7.148;2023-05-19T15:33:06;23.10;99.90
10278;DHT22;5184;51.376;7.148;2023-05-19T15:35:33;23.30;99.90
10278;DHT22;5184;51.376;7.148;2023-05-19T15:38:00;23.30;99.90
10278;DHT22;5184;51.376;7.148;2023-05-19T15:40:27;23.30;99.90
10278;DHT22;5184;51.376;7.148;2023-05-19T15:42:54;23.40;99.90
10278;DHT22;5184;51.376;7.148;2023-05-19T15:45:21;23.30;99.90
10278;DHT22;5184;51.376;7.148;2023-05-19T15:47:47;23.30;99.90
10278;DHT22;5184;51.376;7.148;2023-05-19T15:50:15;23.20;99.90
10278;DHT22;5184;51.376;7.148;2023-05-19T15:52:42;22.90;99.90
10278;DHT22;5184;51.376;7.148;2023-05-19T15:55:09;22.80;99.90
10278;DHT22;5184;51.376;7.148;2023-05-19T15:57:35;22.80;99.90
10278;DHT22;5184;51.376;7.148;2023-05-19T16:00:02;22.80;99.90
10278;DHT22;5184;51.376;7.148;2023-05-19T16:02:29;22.80;99.90
10278;DHT22;5184;51.376;7.148;2023-05-19T16:04:55;22.90;99.90
10278;DHT22;5184;51.376;7.148;2023-05-19T16:07:23;22.90;99.90
10278;DHT22;5184;51.376;7.148;2023-05-19T16:09:50;22.70;99.90